Yangcheng, China
Current Conditions -  °F | °C
As of 6:00 AM on Wednesday 28 Jan 2015 (Local Time) from ZHCC Reporting Station
Light Snow Light Snow  
Wind Chill: 20°   Ceiling: 4000
Heat Index: 28°   Visibility: 6mi
Dew Point: 12°   Wind: 9mph
Humidity: 51%   Direction: 20°NNE
Pressure: 30.48"   Gusts: NA
Location:  35.48°N, 112.4°E
Report Text: ZHCC 272200Z 02004MPS 9999 -SN OVC040 M02/M11 Q1032 NOSIG
Loading
Personal Weather Stations






























Interactive Weather Map New forecast layout! Learn more

10-Day Weather Forecast

Advertisements
Track Severe Weather on mobile